Taunton, United Kingdom
Current Conditions -  °F | °C
As of 4:50 PM on Tuesday 21 Oct 2014 (Local Time) from EGDY Reporting Station
Few Clouds Few Clouds  
Wind Chill: 54°   Ceiling: Unl
Heat Index: 54°   Visibility: 6mi
Dew Point: 37°   Wind: 31mph
Humidity: 54%   Direction: 290°WNW
Pressure: 30"   Gusts: 43mph
Location:  51.01°N, 3.1°W
Report Text: EGDY 211550Z 29027G37KT 9999 FEW012 FEW025CB 12/03 Q1016 BLU TEMPO 4000 SHRA SCT020CB GRN
Loading
Personal Weather Stations






























Interactive Weather Map
Tropical Storm Tracking
New forecast layout! Learn more

10-Day Weather Forecast

Advertisements
Track Severe Weather on mobile